createdAt,value
2024-01-18T00:00:30.201Z,-3.28
2024-01-18T00:02:57.665Z,-3.30
2024-01-18T00:05:25.047Z,-3.31
2024-01-18T00:07:52.377Z,-3.31
2024-01-18T00:10:24.567Z,-3.32
2024-01-18T00:12:52.056Z,-3.31
2024-01-18T00:15:19.789Z,-3.31
2024-01-18T00:17:47.258Z,-3.30
2024-01-18T00:20:14.747Z,-3.31
2024-01-18T00:22:42.154Z,-3.34
2024-01-18T00:25:09.576Z,-3.35
2024-01-18T00:27:36.963Z,-3.38
2024-01-18T00:30:04.894Z,-3.39
2024-01-18T00:32:32.306Z,-3.42
2024-01-18T00:34:59.613Z,-3.43
2024-01-18T00:37:27.059Z,-3.45
2024-01-18T00:39:54.351Z,-3.43
2024-01-18T00:42:21.844Z,-3.44
2024-01-18T00:44:49.148Z,-3.45
2024-01-18T00:47:16.507Z,-3.45
2024-01-18T00:49:45.146Z,-3.46
2024-01-18T00:52:12.493Z,-3.49
2024-01-18T00:54:39.843Z,-3.50
2024-01-18T00:57:07.367Z,-3.50
2024-01-18T00:59:34.660Z,-3.50
2024-01-18T01:02:02.235Z,-3.51
2024-01-18T01:04:29.736Z,-3.48
2024-01-18T01:06:57.002Z,-3.47
2024-01-18T01:09:25.628Z,-3.46
2024-01-18T01:11:53.398Z,-3.46
2024-01-18T01:14:20.761Z,-3.46
2024-01-18T01:16:48.019Z,-3.47
2024-01-18T01:19:15.394Z,-3.47
2024-01-18T01:21:42.726Z,-3.46
2024-01-18T01:24:10.048Z,-3.45
2024-01-18T01:26:37.324Z,-3.45
2024-01-18T01:29:06.259Z,-3.43
2024-01-18T01:31:33.821Z,-3.43
2024-01-18T01:34:01.144Z,-3.42
2024-01-18T01:36:28.507Z,-3.40
2024-01-18T01:38:57.103Z,-3.36
2024-01-18T01:41:24.449Z,-3.31
2024-01-18T01:43:59.255Z,-3.22
2024-01-18T01:46:27.385Z,-3.13
2024-01-18T01:49:01.611Z,-3.02
2024-01-18T01:51:38.089Z,-2.94
2024-01-18T01:54:06.329Z,-2.85
2024-01-18T01:56:35.974Z,-2.76
2024-01-18T01:59:09.149Z,-2.65
2024-01-18T02:01:38.559Z,-2.53
2024-01-18T02:04:06.113Z,-2.42
2024-01-18T02:06:35.659Z,-2.31
2024-01-18T02:09:03.778Z,-2.21
2024-01-18T02:11:32.124Z,-2.14
2024-01-18T02:13:59.386Z,-2.09
2024-01-18T02:16:26.671Z,-2.06
2024-01-18T02:18:54.641Z,-2.07
2024-01-18T02:21:22.208Z,-2.07
2024-01-18T02:23:59.071Z,-2.12
2024-01-18T02:26:26.403Z,-2.13
2024-01-18T02:28:58.442Z,-2.17
2024-01-18T02:31:25.887Z,-2.23
2024-01-18T02:33:53.614Z,-2.28
2024-01-18T02:36:21.575Z,-2.36
2024-01-18T02:38:50.900Z,-2.42
2024-01-18T02:41:18.289Z,-2.44
2024-01-18T02:43:46.810Z,-2.47
2024-01-18T02:46:18.671Z,-2.50
2024-01-18T02:48:46.944Z,-2.52
2024-01-18T02:51:14.527Z,-2.56
2024-01-18T02:53:41.876Z,-2.58
2024-01-18T02:56:09.394Z,-2.61
2024-01-18T02:58:36.808Z,-2.65
2024-01-18T03:01:04.719Z,-2.67
2024-01-18T03:03:32.332Z,-2.72
2024-01-18T03:05:59.658Z,-2.75
2024-01-18T03:08:27.004Z,-2.77
2024-01-18T03:10:54.366Z,-2.79
2024-01-18T03:13:21.814Z,-2.80
2024-01-18T03:15:49.125Z,-2.80
2024-01-18T03:18:16.766Z,-2.80
2024-01-18T03:20:44.261Z,-2.79
2024-01-18T03:23:11.758Z,-2.78
2024-01-18T03:25:39.208Z,-2.78
2024-01-18T03:28:06.828Z,-2.73
2024-01-18T03:30:34.459Z,-2.69
2024-01-18T03:33:01.833Z,-2.66
2024-01-18T03:35:29.310Z,-2.62
2024-01-18T03:37:56.636Z,-2.57
2024-01-18T03:40:23.953Z,-2.52
2024-01-18T03:42:51.213Z,-2.47
2024-01-18T03:45:18.555Z,-2.41
2024-01-18T03:47:48.441Z,-2.38
2024-01-18T03:50:16.193Z,-2.34
2024-01-18T03:52:44.266Z,-2.31
2024-01-18T03:55:13.958Z,-2.27
2024-01-18T03:57:41.686Z,-2.26
2024-01-18T04:00:11.151Z,-2.23
2024-01-18T04:02:38.470Z,-2.20
2024-01-18T04:05:06.424Z,-2.15
2024-01-18T04:07:33.762Z,-2.13
2024-01-18T04:10:01.031Z,-2.09
2024-01-18T04:12:28.433Z,-2.00
2024-01-18T04:14:55.900Z,-1.93
2024-01-18T04:17:23.186Z,-1.86
2024-01-18T04:19:50.566Z,-1.84
2024-01-18T04:22:18.163Z,-1.83
2024-01-18T04:24:46.843Z,-1.84
2024-01-18T04:27:14.393Z,-1.87
2024-01-18T04:29:42.885Z,-1.92
2024-01-18T04:32:10.153Z,-1.99
2024-01-18T04:34:39.174Z,-2.07
2024-01-18T04:37:06.498Z,-2.18
2024-01-18T04:39:33.982Z,-2.23
2024-01-18T04:42:01.426Z,-2.30
2024-01-18T04:44:28.740Z,-2.38
2024-01-18T04:46:56.355Z,-2.43
2024-01-18T04:49:25.867Z,-2.46
2024-01-18T04:51:53.212Z,-2.49
2024-01-18T04:54:20.714Z,-2.51
2024-01-18T04:56:48.735Z,-2.52
2024-01-18T04:59:16.045Z,-2.52
2024-01-18T05:01:45.728Z,-2.52
2024-01-18T05:04:13.404Z,-2.55
2024-01-18T05:06:41.234Z,-2.57
2024-01-18T05:09:11.151Z,-2.62
2024-01-18T05:11:38.472Z,-2.70
2024-01-18T05:14:05.832Z,-2.75
2024-01-18T05:16:34.694Z,-2.81
2024-01-18T05:19:02.074Z,-2.85
2024-01-18T05:21:29.792Z,-2.92
2024-01-18T05:23:57.110Z,-2.99
2024-01-18T05:26:25.347Z,-3.04
2024-01-18T05:28:52.753Z,-3.11
2024-01-18T05:31:20.111Z,-3.16
2024-01-18T05:33:47.455Z,-3.21
2024-01-18T05:36:14.838Z,-3.26
2024-01-18T05:38:42.462Z,-3.29
2024-01-18T05:41:10.231Z,-3.33
2024-01-18T05:43:37.474Z,-3.36
2024-01-18T05:46:05.174Z,-3.38
2024-01-18T05:48:32.449Z,-3.43
2024-01-18T05:50:59.781Z,-3.44
2024-01-18T05:53:27.207Z,-3.44
2024-01-18T05:55:54.771Z,-3.43
2024-01-18T05:58:22.071Z,-3.41
2024-01-18T06:00:49.579Z,-3.39
2024-01-18T06:03:17.000Z,-3.32
2024-01-18T06:05:46.251Z,-3.25
2024-01-18T06:08:13.639Z,-3.21
2024-01-18T06:10:42.339Z,-3.13
2024-01-18T06:13:11.294Z,-3.02
2024-01-18T06:15:38.643Z,-2.92
2024-01-18T06:18:06.429Z,-2.82
2024-01-18T06:20:33.920Z,-2.70
2024-01-18T06:23:02.826Z,-2.58
2024-01-18T06:25:30.190Z,-2.47
2024-01-18T06:27:57.447Z,-2.33
2024-01-18T06:30:25.767Z,-2.21
2024-01-18T06:32:53.096Z,-2.10
2024-01-18T06:35:20.388Z,-2.03
2024-01-18T06:37:47.698Z,-1.99
2024-01-18T06:40:16.316Z,-1.98
2024-01-18T06:42:43.733Z,-1.97
2024-01-18T06:45:11.321Z,-1.98
2024-01-18T06:47:38.638Z,-1.99
2024-01-18T06:50:06.466Z,-2.02
2024-01-18T06:52:33.779Z,-2.05
2024-01-18T06:55:01.088Z,-2.09
2024-01-18T06:57:28.511Z,-2.11
2024-01-18T06:59:56.444Z,-2.17
2024-01-18T07:02:23.813Z,-2.26
2024-01-18T07:04:51.217Z,-2.33
2024-01-18T07:07:19.164Z,-2.40
2024-01-18T07:09:46.607Z,-2.45
2024-01-18T07:12:13.902Z,-2.50
2024-01-18T07:14:41.354Z,-2.54
2024-01-18T07:17:08.692Z,-2.54
2024-01-18T07:19:38.053Z,-2.56
2024-01-18T07:22:06.572Z,-2.58
2024-01-18T07:24:34.932Z,-2.54
2024-01-18T07:27:02.638Z,-2.46
2024-01-18T07:29:29.975Z,-2.36
2024-01-18T07:31:57.190Z,-2.28
2024-01-18T07:34:24.542Z,-2.24
2024-01-18T07:36:51.934Z,-2.23
2024-01-18T07:39:20.255Z,-2.22
2024-01-18T07:41:47.523Z,-2.22
2024-01-18T07:44:14.781Z,-2.21
2024-01-18T07:46:42.181Z,-2.21
2024-01-18T07:49:09.513Z,-2.24
2024-01-18T07:51:36.868Z,-2.27
2024-01-18T07:54:05.287Z,-2.30
2024-01-18T07:56:32.774Z,-2.32
2024-01-18T07:59:00.015Z,-2.38
2024-01-18T08:01:28.894Z,-2.41
2024-01-18T08:03:57.294Z,-2.46
2024-01-18T08:06:24.616Z,-2.47
2024-01-18T08:08:52.091Z,-2.49
2024-01-18T08:11:19.459Z,-2.47
2024-01-18T08:13:47.082Z,-2.42
2024-01-18T08:16:14.462Z,-2.36
2024-01-18T08:18:41.975Z,-2.28
2024-01-18T08:21:10.711Z,-2.20
2024-01-18T08:23:38.412Z,-2.12
2024-01-18T08:26:05.760Z,-2.09
2024-01-18T08:28:33.404Z,-2.09
2024-01-18T08:31:01.048Z,-2.10
2024-01-18T08:33:28.791Z,-2.10
2024-01-18T08:35:56.271Z,-2.12
2024-01-18T08:38:29.994Z,-2.13
2024-01-18T08:41:00.426Z,-2.13
2024-01-18T08:43:30.671Z,-2.13
2024-01-18T08:45:58.263Z,-2.12
2024-01-18T08:48:25.589Z,-2.06
2024-01-18T08:50:54.875Z,-2.03
2024-01-18T08:53:23.119Z,-1.99
2024-01-18T08:55:50.373Z,-1.96
2024-01-18T08:58:17.639Z,-1.93
2024-01-18T09:00:44.939Z,-1.91
2024-01-18T09:03:12.316Z,-1.89
2024-01-18T09:05:39.552Z,-1.86
2024-01-18T09:08:07.331Z,-1.83
2024-01-18T09:10:34.763Z,-1.79
2024-01-18T09:13:02.181Z,-1.74
2024-01-18T09:15:29.522Z,-1.68
2024-01-18T09:17:56.919Z,-1.65
2024-01-18T09:20:24.325Z,-1.58
2024-01-18T09:23:01.516Z,-1.52
2024-01-18T09:25:36.671Z,-1.47
2024-01-18T09:28:04.854Z,-1.40
2024-01-18T09:30:32.388Z,-1.34
2024-01-18T09:32:59.863Z,-1.29
2024-01-18T09:35:27.281Z,-1.19
2024-01-18T09:37:54.734Z,-1.12
2024-01-18T09:40:23.759Z,-1.05
2024-01-18T09:42:51.412Z,-0.95
2024-01-18T09:45:27.993Z,-0.86
2024-01-18T09:47:55.584Z,-0.75
2024-01-18T09:50:23.235Z,-0.67
2024-01-18T09:52:51.157Z,-0.54
2024-01-18T09:55:19.202Z,-0.41
2024-01-18T09:57:50.124Z,-0.22
2024-01-18T10:00:22.731Z,0.10
2024-01-18T10:02:51.582Z,0.39
2024-01-18T10:05:19.763Z,0.61
2024-01-18T10:07:48.098Z,0.70
2024-01-18T10:10:16.517Z,0.71
2024-01-18T10:12:44.219Z,0.68
2024-01-18T10:15:12.131Z,0.67
2024-01-18T10:17:42.454Z,0.69
2024-01-18T10:20:15.611Z,0.68
2024-01-18T10:22:44.735Z,0.67
2024-01-18T10:25:14.467Z,0.67
2024-01-18T10:27:43.435Z,0.67
2024-01-18T10:30:13.386Z,0.75
2024-01-18T10:32:41.071Z,0.94
2024-01-18T10:35:20.432Z,1.05
2024-01-18T10:37:51.912Z,1.15
2024-01-18T10:40:20.659Z,1.35
2024-01-18T10:42:48.262Z,1.43
2024-01-18T10:45:17.128Z,1.40
2024-01-18T10:47:45.468Z,1.48
2024-01-18T10:50:12.852Z,1.60
2024-01-18T10:52:41.859Z,1.51
2024-01-18T10:55:13.451Z,1.38
2024-01-18T10:57:42.219Z,1.32
2024-01-18T11:00:10.125Z,1.27
2024-01-18T11:02:41.312Z,1.22
2024-01-18T11:05:14.304Z,1.17
2024-01-18T11:07:42.191Z,1.11
2024-01-18T11:10:14.490Z,1.09
2024-01-18T11:12:46.354Z,1.04
2024-01-18T11:15:14.828Z,0.93
2024-01-18T11:17:50.041Z,0.86
2024-01-18T11:20:17.458Z,0.87
2024-01-18T11:22:46.309Z,0.91
2024-01-18T11:25:20.321Z,0.95
2024-01-18T11:27:47.677Z,1.02
2024-01-18T11:30:33.803Z,1.07
2024-01-18T11:33:01.575Z,1.11
2024-01-18T11:35:28.964Z,1.15
2024-01-18T11:38:21.348Z,1.20
2024-01-18T11:40:53.867Z,1.27
2024-01-18T11:43:22.423Z,1.31
2024-01-18T11:45:51.665Z,1.37
2024-01-18T11:48:22.411Z,1.43
2024-01-18T11:50:50.822Z,1.48
2024-01-18T11:53:20.045Z,1.54
2024-01-18T11:55:49.915Z,1.59
2024-01-18T11:58:18.444Z,1.63
2024-01-18T12:00:46.011Z,1.66
2024-01-18T12:03:13.978Z,1.70
2024-01-18T12:05:41.849Z,1.72
2024-01-18T12:08:10.003Z,1.74
2024-01-18T12:10:38.524Z,1.75
2024-01-18T12:13:06.195Z,1.77
2024-01-18T12:15:35.995Z,1.78
2024-01-18T12:18:06.638Z,1.80
2024-01-18T12:20:36.278Z,1.82
2024-01-18T12:23:03.671Z,1.83
2024-01-18T12:25:33.083Z,1.83
2024-01-18T12:28:00.571Z,1.84
2024-01-18T12:30:30.021Z,1.84
2024-01-18T12:32:58.688Z,1.82
2024-01-18T12:35:26.545Z,1.83
2024-01-18T12:37:54.646Z,1.82
2024-01-18T12:40:21.954Z,1.82
2024-01-18T12:42:53.340Z,1.81
2024-01-18T12:45:22.530Z,1.80
2024-01-18T12:47:50.698Z,1.80
2024-01-18T12:50:21.287Z,1.81
2024-01-18T12:52:52.245Z,1.80
2024-01-18T12:55:20.167Z,1.76
2024-01-18T12:57:47.827Z,1.75
2024-01-18T13:00:16.462Z,1.74
2024-01-18T13:02:43.882Z,1.70
2024-01-18T13:05:15.452Z,1.67
2024-01-18T13:07:43.125Z,1.65
2024-01-18T13:10:13.296Z,1.62
2024-01-18T13:12:41.039Z,1.59
2024-01-18T13:15:09.764Z,1.54
2024-01-18T13:17:42.527Z,1.52
2024-01-18T13:20:35.232Z,1.51
2024-01-18T13:23:02.577Z,1.48
2024-01-18T13:25:30.212Z,1.46
2024-01-18T13:27:57.630Z,1.47
2024-01-18T13:30:24.962Z,1.48
2024-01-18T13:32:52.241Z,1.53
2024-01-18T13:35:19.506Z,1.61
2024-01-18T13:37:46.927Z,1.66
2024-01-18T13:40:14.225Z,1.69
2024-01-18T13:42:42.388Z,1.71
2024-01-18T13:45:10.371Z,1.75
2024-01-18T13:47:37.739Z,1.79
2024-01-18T13:50:05.670Z,1.77
2024-01-18T13:52:33.070Z,1.74
2024-01-18T13:55:00.445Z,1.71
2024-01-18T13:57:29.017Z,1.68
2024-01-18T13:59:56.409Z,1.64
2024-01-18T14:02:25.330Z,1.60
2024-01-18T14:04:52.660Z,1.59
2024-01-18T14:07:19.968Z,1.58
2024-01-18T14:09:47.303Z,1.57
2024-01-18T14:12:14.617Z,1.54
2024-01-18T14:14:42.145Z,1.54
2024-01-18T14:17:09.695Z,1.53
2024-01-18T14:19:37.161Z,1.51
2024-01-18T14:22:04.896Z,1.48
2024-01-18T14:24:32.303Z,1.45
2024-01-18T14:27:00.128Z,1.41
2024-01-18T14:29:30.246Z,1.33
2024-01-18T14:31:57.728Z,1.27
2024-01-18T14:34:25.214Z,1.20
2024-01-18T14:36:53.056Z,1.12
2024-01-18T14:39:20.428Z,1.07
2024-01-18T14:41:47.768Z,1.00
2024-01-18T14:44:15.033Z,0.92
2024-01-18T14:46:44.151Z,0.85
2024-01-18T14:49:11.621Z,0.76
2024-01-18T14:51:38.996Z,0.68
2024-01-18T14:54:06.362Z,0.61
2024-01-18T14:56:33.654Z,0.54
2024-01-18T14:59:01.097Z,0.46
2024-01-18T15:01:28.390Z,0.39
2024-01-18T15:03:55.725Z,0.33
2024-01-18T15:06:23.131Z,0.26
2024-01-18T15:08:50.387Z,0.18
2024-01-18T15:11:17.717Z,0.11
2024-01-18T15:13:45.241Z,0.05
2024-01-18T15:16:15.821Z,-0.02
2024-01-18T15:18:45.637Z,-0.06
2024-01-18T15:21:13.110Z,-0.10
2024-01-18T15:23:40.399Z,-0.15
2024-01-18T15:26:09.873Z,-0.20
2024-01-18T15:28:37.602Z,-0.25
2024-01-18T15:31:05.610Z,-0.31
2024-01-18T15:33:33.103Z,-0.36
2024-01-18T15:36:00.522Z,-0.42
2024-01-18T15:38:27.832Z,-0.47
2024-01-18T15:40:55.106Z,-0.52
2024-01-18T15:43:22.797Z,-0.59
2024-01-18T15:45:50.580Z,-0.63
2024-01-18T15:48:20.882Z,-0.68
2024-01-18T15:50:50.442Z,-0.73
2024-01-18T15:53:17.882Z,-0.78
2024-01-18T15:55:45.159Z,-0.82
2024-01-18T15:58:12.466Z,-0.85
2024-01-18T16:00:40.988Z,-0.90
2024-01-18T16:03:08.366Z,-0.93
2024-01-18T16:05:36.838Z,-1.00
2024-01-18T16:08:04.539Z,-1.05
2024-01-18T16:10:32.307Z,-1.09
2024-01-18T16:13:01.495Z,-1.14
2024-01-18T16:15:29.136Z,-1.17
2024-01-18T16:17:56.535Z,-1.18
2024-01-18T16:20:23.924Z,-1.19
2024-01-18T16:22:51.812Z,-1.23
2024-01-18T16:25:19.296Z,-1.25
2024-01-18T16:27:46.896Z,-1.26
2024-01-18T16:30:20.327Z,-1.28
2024-01-18T16:32:54.126Z,-1.32
2024-01-18T16:35:21.675Z,-1.33
2024-01-18T16:37:49.114Z,-1.28
2024-01-18T16:40:16.475Z,-1.21
2024-01-18T16:42:43.930Z,-1.20
2024-01-18T16:45:11.340Z,-1.23
2024-01-18T16:47:38.860Z,-1.24
2024-01-18T16:50:07.529Z,-1.26
2024-01-18T16:52:34.788Z,-1.25
2024-01-18T16:55:02.247Z,-1.25
2024-01-18T16:57:33.277Z,-1.23
2024-01-18T17:00:01.745Z,-1.22
2024-01-18T17:02:30.726Z,-1.20
2024-01-18T17:04:58.558Z,-1.19
2024-01-18T17:07:26.761Z,-1.18
2024-01-18T17:09:54.231Z,-1.16
2024-01-18T17:12:21.985Z,-1.15
2024-01-18T17:14:52.319Z,-1.14
2024-01-18T17:17:22.911Z,-1.16
2024-01-18T17:19:50.276Z,-1.19
2024-01-18T17:22:17.777Z,-1.21
2024-01-18T17:24:45.528Z,-1.22
2024-01-18T17:27:13.016Z,-1.22
2024-01-18T17:29:44.851Z,-1.21
2024-01-18T17:32:14.162Z,-1.20
2024-01-18T17:34:41.512Z,-1.19
2024-01-18T17:37:08.876Z,-1.19
2024-01-18T17:39:36.796Z,-1.19
2024-01-18T17:42:04.358Z,-1.22
2024-01-18T17:44:31.762Z,-1.26
2024-01-18T17:47:00.150Z,-1.32
2024-01-18T17:49:28.930Z,-1.38
2024-01-18T17:51:56.376Z,-1.41
2024-01-18T17:54:23.790Z,-1.46
2024-01-18T17:56:51.145Z,-1.50
2024-01-18T17:59:18.664Z,-1.52
2024-01-18T18:01:45.966Z,-1.55
2024-01-18T18:04:13.327Z,-1.59
2024-01-18T18:06:40.652Z,-1.61
2024-01-18T18:09:08.558Z,-1.64
2024-01-18T18:11:36.102Z,-1.65
2024-01-18T18:14:03.556Z,-1.67
2024-01-18T18:16:30.774Z,-1.70
2024-01-18T18:18:58.089Z,-1.72
2024-01-18T18:21:26.989Z,-1.75
2024-01-18T18:23:54.431Z,-1.78
2024-01-18T18:26:22.857Z,-1.78
2024-01-18T18:28:53.138Z,-1.80
2024-01-18T18:31:20.702Z,-1.83
2024-01-18T18:33:48.328Z,-1.84
2024-01-18T18:36:15.679Z,-1.86
2024-01-18T18:38:43.235Z,-1.88
2024-01-18T18:41:11.031Z,-1.89
2024-01-18T18:43:40.515Z,-1.91
2024-01-18T18:46:09.072Z,-1.93
2024-01-18T18:48:37.174Z,-1.96
2024-01-18T18:51:05.766Z,-2.00
2024-01-18T18:53:33.928Z,-2.02
2024-01-18T18:56:01.362Z,-2.04
2024-01-18T18:58:29.860Z,-2.07
2024-01-18T19:00:57.410Z,-2.10
2024-01-18T19:03:24.635Z,-2.12
2024-01-18T19:05:56.216Z,-2.15
2024-01-18T19:08:23.653Z,-2.16
2024-01-18T19:10:51.715Z,-2.15
2024-01-18T19:13:19.964Z,-2.16
2024-01-18T19:15:47.258Z,-2.19
2024-01-18T19:18:14.829Z,-2.19
2024-01-18T19:20:42.570Z,-2.19
2024-01-18T19:23:10.174Z,-2.20
2024-01-18T19:25:37.692Z,-2.19
2024-01-18T19:28:05.298Z,-2.19
2024-01-18T19:30:32.828Z,-2.16
2024-01-18T19:33:00.206Z,-2.14
2024-01-18T19:35:27.776Z,-2.13
2024-01-18T19:37:57.146Z,-2.12
2024-01-18T19:40:24.373Z,-2.13
2024-01-18T19:42:51.772Z,-2.11
2024-01-18T19:45:19.210Z,-2.10
2024-01-18T19:47:46.649Z,-2.05
2024-01-18T19:50:14.147Z,-2.03
2024-01-18T19:52:41.518Z,-2.00
2024-01-18T19:55:09.019Z,-1.97
2024-01-18T19:57:39.285Z,-1.96
2024-01-18T20:00:10.398Z,-1.93
2024-01-18T20:02:40.774Z,-1.94
2024-01-18T20:05:11.864Z,-1.94
2024-01-18T20:07:39.223Z,-1.97
2024-01-18T20:10:07.556Z,-1.97
2024-01-18T20:12:34.833Z,-1.98
2024-01-18T20:15:02.148Z,-1.99
2024-01-18T20:17:29.522Z,-1.99
2024-01-18T20:19:56.952Z,-1.98
2024-01-18T20:22:24.850Z,-1.98
2024-01-18T20:24:52.574Z,-1.96
2024-01-18T20:27:20.164Z,-1.91
2024-01-18T20:29:49.163Z,-1.87
2024-01-18T20:32:17.032Z,-1.84
2024-01-18T20:34:45.412Z,-1.82
2024-01-18T20:37:13.330Z,-1.83
2024-01-18T20:39:40.974Z,-1.84
2024-01-18T20:42:10.360Z,-1.83
2024-01-18T20:44:38.044Z,-1.82
2024-01-18T20:47:05.372Z,-1.82
2024-01-18T20:49:32.883Z,-1.82
2024-01-18T20:52:00.214Z,-1.83
2024-01-18T20:54:27.608Z,-1.86
2024-01-18T20:56:54.957Z,-1.86
2024-01-18T20:59:22.353Z,-1.89
2024-01-18T21:01:49.790Z,-1.91
2024-01-18T21:04:17.238Z,-1.90
2024-01-18T21:06:45.553Z,-1.90
2024-01-18T21:09:14.798Z,-1.91
2024-01-18T21:11:42.090Z,-1.91
2024-01-18T21:14:09.548Z,-1.90
2024-01-18T21:16:37.034Z,-1.93
2024-01-18T21:19:04.614Z,-1.95
2024-01-18T21:21:32.199Z,-1.93
2024-01-18T21:23:59.711Z,-1.91
2024-01-18T21:26:27.207Z,-1.91
2024-01-18T21:28:54.655Z,-1.89
2024-01-18T21:31:21.987Z,-1.85
2024-01-18T21:33:49.544Z,-1.81
2024-01-18T21:36:17.018Z,-1.74
2024-01-18T21:38:44.420Z,-1.68
2024-01-18T21:41:11.922Z,-1.63
2024-01-18T21:43:39.410Z,-1.57
2024-01-18T21:46:07.958Z,-1.49
2024-01-18T21:48:35.502Z,-1.45
2024-01-18T21:51:04.044Z,-1.43
2024-01-18T21:53:35.980Z,-1.38
2024-01-18T21:56:03.738Z,-1.37
2024-01-18T21:58:32.656Z,-1.36
2024-01-18T22:01:00.087Z,-1.36
2024-01-18T22:03:27.628Z,-1.38
2024-01-18T22:05:55.030Z,-1.37
2024-01-18T22:08:22.643Z,-1.34
2024-01-18T22:10:50.039Z,-1.32
2024-01-18T22:13:17.534Z,-1.31
2024-01-18T22:15:45.030Z,-1.32
2024-01-18T22:18:12.443Z,-1.32
2024-01-18T22:20:39.928Z,-1.33
2024-01-18T22:23:08.053Z,-1.31
2024-01-18T22:25:35.411Z,-1.29
2024-01-18T22:28:02.694Z,-1.22
2024-01-18T22:30:30.056Z,-1.14
2024-01-18T22:32:57.445Z,-1.05
2024-01-18T22:35:25.111Z,-0.99
2024-01-18T22:37:52.969Z,-0.94
2024-01-18T22:40:20.860Z,-0.89
2024-01-18T22:42:48.417Z,-0.89
2024-01-18T22:45:16.414Z,-0.87
2024-01-18T22:47:43.778Z,-0.88
2024-01-18T22:50:11.418Z,-0.90
2024-01-18T22:52:39.730Z,-0.92
2024-01-18T22:55:07.431Z,-0.96
2024-01-18T22:57:34.741Z,-1.01
2024-01-18T23:00:02.136Z,-1.02
2024-01-18T23:02:29.456Z,-1.03
2024-01-18T23:04:56.754Z,-1.04
2024-01-18T23:07:24.067Z,-1.04
2024-01-18T23:09:51.371Z,-1.05
2024-01-18T23:12:22.289Z,-1.05
2024-01-18T23:14:49.692Z,-1.02
2024-01-18T23:17:17.444Z,-0.93
2024-01-18T23:19:44.890Z,-0.83
2024-01-18T23:22:12.242Z,-0.73
2024-01-18T23:24:39.976Z,-0.68
2024-01-18T23:27:09.516Z,-0.66
2024-01-18T23:29:37.052Z,-0.66
2024-01-18T23:32:04.728Z,-0.68
2024-01-18T23:34:32.106Z,-0.70
2024-01-18T23:36:59.489Z,-0.75
2024-01-18T23:39:26.966Z,-0.81
2024-01-18T23:41:54.445Z,-0.86
2024-01-18T23:44:21.771Z,-0.91
2024-01-18T23:46:49.196Z,-0.95
2024-01-18T23:49:16.521Z,-1.00
2024-01-18T23:51:44.017Z,-1.06
2024-01-18T23:54:11.313Z,-1.13
2024-01-18T23:56:39.097Z,-1.16
2024-01-18T23:59:06.462Z,-1.20
